Time;durP1;ratioP1;P1;durP2;ratioP2;P2;SDS_P1;SDS_P2;PMS_P1;PMS_P2;Temp;Humidity;BMP_temperature;BMP_pressure;BME280_temperature;BME280_humidity;BME280_pressure;Samples;Min_cycle;Max_cycle;Signal;HPM_P1;HPM_P2
2022/01/27 00:00:38;;;;;;;0.00;0.00;;;2.70;85.50;;;;;;4178937;28;20106;-57
2022/01/27 00:05:46;;;;;;;0.00;0.00;;;2.70;85.50;;;;;;4194206;28;20071;-53
2022/01/27 00:08:13;;;;;;;0.00;0.00;;;2.60;85.50;;;;;;4194530;28;20050;-56
2022/01/27 00:13:04;;;;;;;0.00;0.00;;;2.40;87.10;;;;;;4208657;28;20517;-60
2022/01/27 00:15:32;;;;;;;0.00;0.00;;;2.40;87.30;;;;;;4194379;28;20512;-56
2022/01/27 00:17:59;;;;;;;0.00;0.00;;;2.40;87.50;;;;;;4208560;28;20044;-55
2022/01/27 00:20:22;;;;;;;0.00;0.00;;;2.30;88.40;;;;;;4208029;28;20052;-58
2022/01/27 00:22:44;;;;;;;0.00;0.00;;;2.30;88.90;;;;;;4210718;28;20036;-59
2022/01/27 00:25:07;;;;;;;0.00;0.00;;;2.20;89.00;;;;;;4197790;28;20173;-60
2022/01/27 00:27:29;;;;;;;0.00;0.00;;;2.30;89.50;;;;;;4173057;28;20056;-59
2022/01/27 00:29:52;;;;;;;0.00;0.00;;;2.20;89.80;;;;;;4181068;28;20434;-60
2022/01/27 00:32:14;;;;;;;0.00;0.00;;;2.10;90.20;;;;;;4197058;28;20415;-58
2022/01/27 00:34:37;;;;;;;0.00;0.00;;;2.20;90.20;;;;;;4197286;28;20143;-60
2022/01/27 00:36:59;;;;;;;0.00;0.00;;;2.30;90.00;;;;;;4197625;28;20048;-59
2022/01/27 00:39:22;;;;;;;0.00;0.00;;;2.20;90.00;;;;;;4187921;28;20103;-60
2022/01/27 00:41:44;;;;;;;0.00;0.00;;;2.30;90.00;;;;;;4180653;28;20100;-59
2022/01/27 00:44:07;;;;;;;0.00;0.00;;;2.30;89.60;;;;;;4210889;28;20051;-59
2022/01/27 00:46:32;;;;;;;0.00;0.00;;;2.40;89.30;;;;;;4211218;28;20421;-60
2022/01/27 00:48:54;;;;;;;0.00;0.00;;;2.40;88.80;;;;;;4197375;28;20053;-59
2022/01/27 00:51:23;;;;;;;0.00;0.00;;;2.40;88.70;;;;;;4197066;28;20040;-59
2022/01/27 00:53:51;;;;;;;0.00;0.00;;;2.40;88.50;;;;;;4197325;28;20147;-59
2022/01/27 01:01:16;;;;;;;0.00;0.00;;;2.20;89.30;;;;;;4211187;28;20629;-59
2022/01/27 01:03:42;;;;;;;0.00;0.00;;;2.20;89.30;;;;;;4198012;28;20040;-59
2022/01/27 01:32:57;;;;;;;0.00;0.00;;;1.70;90.80;;;;;;4160158;28;20635;-55
2022/01/27 01:35:29;;;;;;;0.00;0.00;;;1.80;90.70;;;;;;4164288;28;20123;-59
2022/01/27 01:38:01;;;;;;;0.00;0.00;;;1.80;90.80;;;;;;4164624;28;20132;-60
2022/01/27 01:40:27;;;;;;;0.00;0.00;;;1.80;90.60;;;;;;4164085;28;20050;-58
2022/01/27 01:42:53;;;;;;;0.00;0.00;;;1.80;90.70;;;;;;4163511;28;20049;-60
2022/01/27 01:45:18;;;;;;;0.00;0.00;;;1.80;90.70;;;;;;4163335;28;20457;-61
2022/01/27 01:47:41;;;;;;;0.00;0.00;;;1.70;90.90;;;;;;4164595;28;20064;-59
2022/01/27 01:50:24;;;;;;;0.00;0.00;;;1.80;90.90;;;;;;4164114;28;20059;-59
2022/01/27 01:53:14;;;;;;;0.00;0.00;;;1.80;90.80;;;;;;4163485;28;20041;-61
2022/01/27 01:55:37;;;;;;;0.00;0.00;;;1.80;90.80;;;;;;4164484;28;20042;-58
2022/01/27 01:58:10;;;;;;;0.00;0.00;;;1.80;90.80;;;;;;4164450;28;20052;-58
2022/01/27 02:00:42;;;;;;;0.00;0.00;;;1.80;90.70;;;;;;4162578;28;20064;-59
2022/01/27 02:03:14;;;;;;;0.00;0.00;;;1.80;90.60;;;;;;4168413;28;20517;-59
2022/01/27 02:05:54;;;;;;;0.00;0.00;;;1.80;90.60;;;;;;4147667;28;20045;-58
2022/01/27 02:19:26;;;;;;;0.00;0.00;;;1.70;90.90;;;;;;4164115;28;20049;-59
2022/01/27 02:22:04;;;;;;;0.00;0.00;;;1.70;90.40;;;;;;4163572;28;20683;-58
2022/01/27 02:24:28;;;;;;;0.00;0.00;;;1.60;90.70;;;;;;4162459;28;20477;-59
2022/01/27 02:26:52;;;;;;;0.00;0.00;;;1.50;90.80;;;;;;4176744;28;20503;-59
2022/01/27 02:29:15;;;;;;;0.00;0.00;;;1.40;91.00;;;;;;4163044;28;20049;-60
2022/01/27 02:31:37;;;;;;;0.00;0.00;;;1.40;91.20;;;;;;4162694;28;20072;-57
2022/01/27 02:34:05;;;;;;;0.00;0.00;;;1.50;91.00;;;;;;4162646;28;20540;-58
2022/01/27 02:36:27;;;;;;;0.00;0.00;;;1.50;91.10;;;;;;4162361;28;20091;-61
2022/01/27 02:38:50;;;;;;;0.00;0.00;;;1.40;91.30;;;;;;4162687;28;20038;-60
2022/01/27 02:41:12;;;;;;;0.00;0.00;;;1.30;91.20;;;;;;4162168;28;20041;-60
2022/01/27 02:43:34;;;;;;;0.00;0.00;;;1.40;91.40;;;;;;4149160;28;20115;-58
2022/01/27 02:46:08;;;;;;;0.00;0.00;;;1.50;91.00;;;;;;4161921;28;20177;-58
2022/01/27 02:48:30;;;;;;;0.00;0.00;;;1.60;90.80;;;;;;4162110;28;20081;-59
2022/01/27 02:50:54;;;;;;;0.00;0.00;;;1.70;90.40;;;;;;4176292;28;20061;-60
2022/01/27 02:53:18;;;;;;;0.00;0.00;;;1.50;90.60;;;;;;4162393;28;20053;-57
2022/01/27 02:55:40;;;;;;;0.00;0.00;;;1.40;90.70;;;;;;4162502;28;20041;-60
2022/01/27 02:58:04;;;;;;;0.00;0.00;;;1.50;90.70;;;;;;4162475;28;20132;-60
2022/01/27 03:00:27;;;;;;;0.00;0.00;;;1.60;90.40;;;;;;4161997;28;20037;-60
2022/01/27 03:02:49;;;;;;;0.00;0.00;;;1.60;90.20;;;;;;4143611;28;20137;-61
2022/01/27 03:05:12;;;;;;;0.00;0.00;;;1.60;90.00;;;;;;4154461;28;20696;-60
2022/01/27 03:07:34;;;;;;;0.00;0.00;;;1.70;89.80;;;;;;4150759;28;20054;-61
2022/01/27 03:09:57;;;;;;;0.00;0.00;;;1.70;89.70;;;;;;4159527;28;20565;-58
2022/01/27 03:12:23;;;;;;;0.00;0.00;;;1.70;89.60;;;;;;4160387;28;20056;-59
2022/01/27 03:14:48;;;;;;;0.00;0.00;;;1.70;89.40;;;;;;4162247;28;20128;-60
2022/01/27 03:17:11;;;;;;;0.00;0.00;;;1.60;89.30;;;;;;4161916;28;20095;-59
2022/01/27 03:19:35;;;;;;;0.00;0.00;;;1.60;89.20;;;;;;4175592;28;20147;-60
2022/01/27 03:21:58;;;;;;;0.00;0.00;;;1.70;89.20;;;;;;4161609;28;20045;-58
2022/01/27 03:24:23;;;;;;;0.00;0.00;;;1.60;89.10;;;;;;4183642;28;20094;-60
2022/01/27 03:26:46;;;;;;;0.00;0.00;;;1.60;89.10;;;;;;4195227;28;20068;-58
2022/01/27 03:29:09;;;;;;;0.00;0.00;;;1.50;89.10;;;;;;4194810;28;20044;-61
2022/01/27 03:31:31;;;;;;;0.00;0.00;;;1.60;89.40;;;;;;4197602;28;20036;-59
2022/01/27 03:33:54;;;;;;;0.00;0.00;;;1.60;89.40;;;;;;4164579;28;20106;-59
2022/01/27 03:36:16;;;;;;;0.00;0.00;;;1.70;89.30;;;;;;4194461;28;20041;-60
2022/01/27 03:38:39;;;;;;;0.00;0.00;;;1.70;89.10;;;;;;4181147;28;20047;-60
2022/01/27 03:41:07;;;;;;;0.00;0.00;;;1.70;89.10;;;;;;4194478;28;20044;-59
2022/01/27 03:43:29;;;;;;;0.00;0.00;;;1.80;89.40;;;;;;4208872;28;20040;-60
2022/01/27 03:45:52;;;;;;;0.00;0.00;;;1.80;89.70;;;;;;4208963;28;20358;-60
2022/01/27 03:48:14;;;;;;;0.00;0.00;;;1.90;89.70;;;;;;4194472;28;20087;-60
2022/01/27 03:50:37;;;;;;;0.00;0.00;;;1.90;89.50;;;;;;4208663;28;20131;-60
2022/01/27 03:52:59;;;;;;;0.00;0.00;;;1.90;89.50;;;;;;4187902;28;20126;-59
2022/01/27 03:55:21;;;;;;;0.00;0.00;;;1.90;89.50;;;;;;4178372;28;20053;-61
2022/01/27 03:57:44;;;;;;;0.00;0.00;;;2.00;89.60;;;;;;4190765;28;20095;-58
2022/01/27 04:00:08;;;;;;;0.00;0.00;;;2.00;89.40;;;;;;4194627;28;20410;-59
2022/01/27 04:02:39;;;;;;;0.00;0.00;;;2.10;89.30;;;;;;4177563;28;20517;-61
2022/01/27 04:05:02;;;;;;;0.00;0.00;;;2.10;89.40;;;;;;4178096;28;20045;-60
2022/01/27 04:07:24;;;;;;;0.00;0.00;;;2.10;89.40;;;;;;4177912;28;20060;-59
2022/01/27 04:09:47;;;;;;;0.00;0.00;;;2.10;89.50;;;;;;4177975;28;20481;-59
2022/01/27 04:12:09;;;;;;;0.00;0.00;;;2.10;89.40;;;;;;4191947;28;20391;-58
2022/01/27 04:14:32;;;;;;;0.00;0.00;;;2.10;89.70;;;;;;4194010;28;20036;-60
2022/01/27 04:16:54;;;;;;;0.00;0.00;;;2.10;89.90;;;;;;4194530;28;20140;-59
2022/01/27 04:19:17;;;;;;;0.00;0.00;;;2.20;90.10;;;;;;4194453;28;20090;-60
2022/01/27 04:21:44;;;;;;;0.00;0.00;;;2.20;90.10;;;;;;4194292;28;20132;-60
2022/01/27 04:24:08;;;;;;;0.00;0.00;;;2.20;90.10;;;;;;4208313;28;20127;-60
2022/01/27 04:26:41;;;;;;;0.00;0.00;;;2.20;90.10;;;;;;4194046;28;20458;-61
2022/01/27 04:29:04;;;;;;;0.00;0.00;;;2.20;90.20;;;;;;4194458;28;20044;-56
2022/01/27 04:31:30;;;;;;;0.00;0.00;;;2.20;90.10;;;;;;4185543;28;20162;-60
2022/01/27 04:33:54;;;;;;;0.00;0.00;;;2.20;90.10;;;;;;4161290;28;20041;-58
2022/01/27 04:36:29;;;;;;;0.00;0.00;;;2.20;90.20;;;;;;4160929;28;20049;-60
2022/01/27 04:44:22;;;;;;;0.00;0.00;;;2.00;90.50;;;;;;4145348;28;20503;-60
2022/01/27 04:46:58;;;;;;;0.00;0.00;;;1.90;90.60;;;;;;4160967;28;20076;-57
2022/01/27 04:49:20;;;;;;;0.00;0.00;;;2.00;90.80;;;;;;4161163;28;20064;-60
2022/01/27 04:51:43;;;;;;;0.00;0.00;;;2.00;90.70;;;;;;4160908;28;20042;-59
2022/01/27 04:54:19;;;;;;;0.00;0.00;;;2.00;90.70;;;;;;4145477;28;20054;-60
2022/01/27 04:56:42;;;;;;;0.00;0.00;;;2.00;90.70;;;;;;4148474;28;20045;-60
2022/01/27 04:59:12;;;;;;;0.00;0.00;;;2.10;90.80;;;;;;4160876;28;20049;-59
2022/01/27 05:01:41;;;;;;;0.00;0.00;;;2.10;90.80;;;;;;4160893;28;20437;-59
2022/01/27 05:04:09;;;;;;;0.00;0.00;;;2.10;90.70;;;;;;4175011;28;20056;-60
2022/01/27 05:06:32;;;;;;;0.00;0.00;;;2.10;90.80;;;;;;4144334;28;20061;-60
2022/01/27 05:08:55;;;;;;;0.00;0.00;;;2.10;90.80;;;;;;4152903;28;20096;-57
2022/01/27 05:11:34;;;;;;;0.00;0.00;;;2.10;90.80;;;;;;4164010;28;20068;-60
2022/01/27 05:14:03;;;;;;;0.00;0.00;;;2.10;90.90;;;;;;4178359;28;20053;-60
2022/01/27 05:16:27;;;;;;;0.00;0.00;;;2.20;90.90;;;;;;4162067;28;20212;-59
2022/01/27 05:18:49;;;;;;;0.00;0.00;;;2.20;91.00;;;;;;4150755;28;20463;-60
2022/01/27 05:21:12;;;;;;;0.00;0.00;;;2.20;90.90;;;;;;4156285;28;20128;-61
2022/01/27 05:23:34;;;;;;;0.00;0.00;;;2.20;90.90;;;;;;4164326;28;20048;-60
2022/01/27 05:25:57;;;;;;;0.00;0.00;;;2.20;90.90;;;;;;4192096;28;20670;-60
2022/01/27 05:28:19;;;;;;;0.00;0.00;;;2.20;90.90;;;;;;4163834;28;20521;-60
2022/01/27 05:30:41;;;;;;;0.00;0.00;;;2.20;90.90;;;;;;4164191;28;20080;-60
2022/01/27 05:33:04;;;;;;;0.00;0.00;;;2.20;90.90;;;;;;4164453;28;20411;-59
2022/01/27 05:35:27;;;;;;;0.00;0.00;;;2.20;91.00;;;;;;4150346;28;20153;-60
2022/01/27 05:37:49;;;;;;;0.00;0.00;;;2.20;91.30;;;;;;4150513;28;20045;-59
2022/01/27 05:40:12;;;;;;;0.00;0.00;;;2.20;91.00;;;;;;4147458;28;20058;-61
2022/01/27 05:42:34;;;;;;;0.00;0.00;;;2.20;91.10;;;;;;4164208;28;20128;-59
2022/01/27 05:44:57;;;;;;;0.00;0.00;;;2.10;91.10;;;;;;4163738;28;20143;-58
2022/01/27 05:47:19;;;;;;;0.00;0.00;;;2.10;91.20;;;;;;4177645;28;20053;-60
2022/01/27 05:49:42;;;;;;;0.00;0.00;;;2.20;91.10;;;;;;4163703;28;20046;-60
2022/01/27 05:52:04;;;;;;;0.00;0.00;;;2.20;91.10;;;;;;4163480;28;20056;-60
2022/01/27 05:54:27;;;;;;;0.00;0.00;;;2.20;91.20;;;;;;4163385;28;20049;-61
2022/01/27 05:56:49;;;;;;;0.00;0.00;;;2.20;90.70;;;;;;4163889;28;20116;-59
2022/01/27 05:59:12;;;;;;;0.00;0.00;;;1.70;91.10;;;;;;4163599;28;20058;-58
2022/01/27 06:01:34;;;;;;;0.00;0.00;;;1.70;91.80;;;;;;4177322;28;20041;-60
2022/01/27 06:03:56;;;;;;;0.00;0.00;;;1.40;91.50;;;;;;4177388;28;20061;-58
2022/01/27 06:06:23;;;;;;;0.00;0.00;;;1.30;92.30;;;;;;4177179;28;20406;-60
2022/01/27 06:08:46;;;;;;;0.00;0.00;;;1.10;92.20;;;;;;4163667;28;20041;-60
2022/01/27 06:11:08;;;;;;;0.00;0.00;;;1.20;92.50;;;;;;4177197;28;20095;-56
2022/01/27 06:13:30;;;;;;;0.00;0.00;;;0.90;92.50;;;;;;4177404;28;20502;-53
2022/01/27 06:15:53;;;;;;;0.00;0.00;;;1.00;92.70;;;;;;4163494;28;20053;-55
2022/01/27 06:18:16;;;;;;;0.00;0.00;;;0.90;92.40;;;;;;4146784;28;20096;-59
2022/01/27 06:20:39;;;;;;;0.00;0.00;;;1.10;92.60;;;;;;4145958;28;20411;-58
2022/01/27 06:23:02;;;;;;;0.00;0.00;;;1.30;92.30;;;;;;4147034;28;20053;-61
2022/01/27 06:25:28;;;;;;;0.00;0.00;;;1.40;91.70;;;;;;4160271;28;20064;-57
2022/01/27 06:27:50;;;;;;;0.00;0.00;;;1.50;91.60;;;;;;4160448;28;20451;-61
2022/01/27 06:30:13;;;;;;;0.00;0.00;;;1.30;91.50;;;;;;4163001;28;20055;-61
2022/01/27 06:32:35;;;;;;;0.00;0.00;;;1.20;92.00;;;;;;4164266;28;20399;-56
2022/01/27 06:34:58;;;;;;;0.00;0.00;;;1.30;91.90;;;;;;4163020;28;20060;-58
2022/01/27 06:37:20;;;;;;;0.00;0.00;;;1.40;91.60;;;;;;4153711;28;20392;-57
2022/01/27 06:39:42;;;;;;;0.00;0.00;;;1.40;91.80;;;;;;4159166;28;20148;-53
2022/01/27 06:42:10;;;;;;;0.00;0.00;;;1.50;91.80;;;;;;4163055;28;20095;-61
2022/01/27 06:44:32;;;;;;;0.00;0.00;;;1.50;91.70;;;;;;4146193;28;20053;-58
2022/01/27 06:46:55;;;;;;;0.00;0.00;;;1.60;91.60;;;;;;4146437;28;20073;-58
2022/01/27 06:49:17;;;;;;;0.00;0.00;;;1.70;91.50;;;;;;4133277;28;20557;-57
2022/01/27 06:51:44;;;;;;;0.00;0.00;;;1.70;91.30;;;;;;4146212;28;20081;-59
2022/01/27 06:54:06;;;;;;;0.00;0.00;;;1.80;91.20;;;;;;4145489;28;20417;-59
2022/01/27 06:56:30;;;;;;;0.00;0.00;;;1.80;91.10;;;;;;4135213;28;20088;-59
2022/01/27 06:58:55;;;;;;;0.00;0.00;;;1.70;91.00;;;;;;4162735;28;20058;-55
2022/01/27 07:01:19;;;;;;;0.00;0.00;;;1.70;91.10;;;;;;4176153;28;20052;-59
2022/01/27 07:03:42;;;;;;;0.00;0.00;;;1.70;91.20;;;;;;4150413;28;20144;-59
2022/01/27 07:06:04;;;;;;;0.00;0.00;;;1.70;91.20;;;;;;4161605;28;20053;-58
2022/01/27 07:08:28;;;;;;;0.00;0.00;;;1.60;91.30;;;;;;4176265;28;20099;-60
2022/01/27 07:10:50;;;;;;;0.00;0.00;;;1.60;91.60;;;;;;4148650;28;20041;-59
2022/01/27 07:13:14;;;;;;;0.00;0.00;;;1.60;91.30;;;;;;4154135;28;20054;-59
2022/01/27 07:15:37;;;;;;;0.00;0.00;;;1.70;91.30;;;;;;4157876;28;20548;-55
2022/01/27 07:17:59;;;;;;;0.00;0.00;;;1.70;91.30;;;;;;4162307;28;20068;-53
2022/01/27 07:20:22;;;;;;;0.00;0.00;;;1.70;91.10;;;;;;4161919;28;20046;-59
2022/01/27 07:22:44;;;;;;;0.00;0.00;;;1.80;91.20;;;;;;4162586;28;20041;-57
2022/01/27 07:25:08;;;;;;;0.00;0.00;;;1.90;91.20;;;;;;4162298;28;20560;-56
2022/01/27 07:27:32;;;;;;;0.00;0.00;;;1.90;91.10;;;;;;4162348;28;20053;-59
2022/01/27 07:30:01;;;;;;;0.00;0.00;;;1.90;91.10;;;;;;4162435;28;20059;-59
2022/01/27 07:32:23;;;;;;;0.00;0.00;;;1.60;91.10;;;;;;4161366;28;20649;-59
2022/01/27 07:34:47;;;;;;;0.00;0.00;;;1.60;91.70;;;;;;4162005;28;20053;-57
2022/01/27 07:37:10;;;;;;;0.00;0.00;;;1.60;91.40;;;;;;4162360;28;20136;-59
2022/01/27 07:39:32;;;;;;;0.00;0.00;;;1.60;91.70;;;;;;4161975;28;20045;-59
2022/01/27 07:41:57;;;;;;;0.00;0.00;;;1.70;91.50;;;;;;4161966;28;20069;-58
2022/01/27 07:44:19;;;;;;;0.00;0.00;;;1.80;91.60;;;;;;4161649;28;20513;-56
2022/01/27 07:46:41;;;;;;;0.00;0.00;;;1.80;91.60;;;;;;4148412;28;20048;-57
2022/01/27 07:49:04;;;;;;;0.00;0.00;;;1.80;91.40;;;;;;4141258;28;20050;-58
2022/01/27 07:51:26;;;;;;;0.00;0.00;;;1.70;91.80;;;;;;4145588;28;20439;-56
2022/01/27 07:53:49;;;;;;;0.00;0.00;;;1.90;91.80;;;;;;4158907;28;20053;-57
2022/01/27 07:56:26;;;;;;;0.00;0.00;;;2.00;91.50;;;;;;4159406;28;20048;-57
2022/01/27 07:58:49;;;;;;;0.00;0.00;;;2.10;91.30;;;;;;4130501;28;20429;-57
2022/01/27 08:01:11;;;;;;;0.00;0.00;;;1.90;91.30;;;;;;4152746;28;20082;-57
2022/01/27 08:03:36;;;;;;;0.00;0.00;;;1.90;91.50;;;;;;4162034;28;20050;-56
2022/01/27 08:05:59;;;;;;;0.00;0.00;;;1.90;91.40;;;;;;4161675;28;20060;-52
2022/01/27 08:08:21;;;;;;;0.00;0.00;;;1.70;91.30;;;;;;4175310;28;20077;-55
2022/01/27 08:10:44;;;;;;;0.00;0.00;;;1.40;91.70;;;;;;4161565;28;20042;-56
2022/01/27 08:13:09;;;;;;;0.00;0.00;;;1.30;92.20;;;;;;4161835;28;20136;-57
2022/01/27 08:15:32;;;;;;;0.00;0.00;;;1.40;92.00;;;;;;4161830;28;20418;-57
2022/01/27 08:17:55;;;;;;;0.00;0.00;;;1.40;92.00;;;;;;4148525;28;20042;-57
2022/01/27 08:20:18;;;;;;;0.00;0.00;;;1.50;92.20;;;;;;4163827;28;20517;-58
2022/01/27 08:22:44;;;;;;;0.00;0.00;;;1.70;91.90;;;;;;4174789;28;20128;-57
2022/01/27 08:25:07;;;;;;;0.00;0.00;;;1.80;91.70;;;;;;4175371;28;20045;-57
2022/01/27 08:27:31;;;;;;;0.00;0.00;;;1.90;91.40;;;;;;4161477;28;20041;-58
2022/01/27 08:29:59;;;;;;;0.00;0.00;;;2.00;91.20;;;;;;4189214;28;20111;-57
2022/01/27 08:32:30;;;;;;;0.00;0.00;;;2.20;91.30;;;;;;4191419;28;20139;-58
2022/01/27 08:34:53;;;;;;;0.00;0.00;;;2.30;90.90;;;;;;4191941;28;20147;-58
2022/01/27 08:37:21;;;;;;;0.00;0.00;;;2.30;90.80;;;;;;4165082;28;20038;-57
2022/01/27 08:39:46;;;;;;;0.00;0.00;;;2.30;90.80;;;;;;4159142;28;20077;-57
2022/01/27 08:42:09;;;;;;;0.00;0.00;;;2.30;90.80;;;;;;4147640;28;20097;-54
2022/01/27 08:44:32;;;;;;;0.00;0.00;;;2.40;90.70;;;;;;4164457;28;20083;-58
2022/01/27 08:46:54;;;;;;;0.00;0.00;;;2.40;90.60;;;;;;4178384;28;20084;-57
2022/01/27 08:49:19;;;;;;;0.00;0.00;;;2.40;90.40;;;;;;4178541;28;20053;-56
2022/01/27 08:51:47;;;;;;;0.00;0.00;;;2.20;90.30;;;;;;4164404;28;20899;-57
2022/01/27 08:54:11;;;;;;;0.00;0.00;;;2.20;90.50;;;;;;4167202;28;20572;-61
2022/01/27 08:56:33;;;;;;;0.00;0.00;;;2.20;90.70;;;;;;4195069;28;20044;-58
2022/01/27 08:58:56;;;;;;;0.00;0.00;;;2.10;90.70;;;;;;4194909;28;20059;-57
2022/01/27 09:01:20;;;;;;;0.00;0.00;;;2.10;90.80;;;;;;4180895;28;20579;-57
2022/01/27 09:03:45;;;;;;;0.00;0.00;;;2.00;90.80;;;;;;4181097;28;20045;-58
2022/01/27 09:06:08;;;;;;;0.00;0.00;;;1.90;90.80;;;;;;4194721;28;20052;-58
2022/01/27 09:08:36;;;;;;;0.00;0.00;;;1.90;90.90;;;;;;4180281;28;20861;-58
2022/01/27 09:10:58;;;;;;;0.00;0.00;;;1.90;91.00;;;;;;4188106;28;20088;-58
2022/01/27 09:13:20;;;;;;;0.00;0.00;;;1.80;91.10;;;;;;4164180;28;20124;-58
2022/01/27 09:15:43;;;;;;;0.00;0.00;;;1.90;91.10;;;;;;4178260;28;20087;-59
2022/01/27 09:18:06;;;;;;;0.00;0.00;;;1.90;91.20;;;;;;4150377;28;20049;-51
2022/01/27 09:20:29;;;;;;;0.00;0.00;;;2.00;91.20;;;;;;4176526;28;20063;-58
2022/01/27 09:22:53;;;;;;;0.00;0.00;;;2.20;91.00;;;;;;4177822;28;20057;-59
2022/01/27 09:25:20;;;;;;;0.00;0.00;;;2.10;90.90;;;;;;4178020;28;20049;-59
2022/01/27 09:27:45;;;;;;;0.00;0.00;;;2.30;91.00;;;;;;4177861;28;20060;-56
2022/01/27 09:30:08;;;;;;;0.00;0.00;;;2.40;90.80;;;;;;4163781;28;20054;-59
2022/01/27 09:32:30;;;;;;;0.00;0.00;;;2.30;90.60;;;;;;4193792;28;20489;-57
2022/01/27 09:34:57;;;;;;;0.00;0.00;;;2.30;90.70;;;;;;4194392;28;20169;-58
2022/01/27 09:37:19;;;;;;;0.00;0.00;;;2.50;90.70;;;;;;4194227;28;20059;-58
2022/01/27 09:39:42;;;;;;;0.00;0.00;;;2.50;90.50;;;;;;4181980;28;20105;-57
2022/01/27 09:42:06;;;;;;;0.00;0.00;;;2.50;90.50;;;;;;4175588;28;20084;-59
2022/01/27 09:44:31;;;;;;;0.00;0.00;;;2.60;90.40;;;;;;4150421;28;20037;-59
2022/01/27 09:46:57;;;;;;;0.00;0.00;;;2.70;90.40;;;;;;4172001;28;20052;-60
2022/01/27 09:49:30;;;;;;;0.00;0.00;;;2.90;90.30;;;;;;4163721;28;20056;-58
2022/01/27 09:51:53;;;;;;;0.00;0.00;;;3.00;90.10;;;;;;4150858;28;20139;-59
2022/01/27 09:54:16;;;;;;;0.00;0.00;;;3.10;90.20;;;;;;4179548;28;20060;-59
2022/01/27 09:56:40;;;;;;;0.00;0.00;;;3.20;89.60;;;;;;4194128;28;20052;-58
2022/01/27 09:59:08;;;;;;;0.00;0.00;;;2.80;89.10;;;;;;4177448;28;20045;-59
2022/01/27 10:01:30;;;;;;;0.00;0.00;;;2.90;90.00;;;;;;4177317;28;20501;-59
2022/01/27 10:04:07;;;;;;;0.00;0.00;;;2.90;89.90;;;;;;4163581;28;20144;-59
2022/01/27 10:06:31;;;;;;;0.00;0.00;;;3.30;90.10;;;;;;4176960;28;20051;-59
2022/01/27 10:09:13;;;;;;;0.00;0.00;;;3.70;88.80;;;;;;4163690;28;20125;-59
2022/01/27 10:11:35;;;;;;;0.00;0.00;;;4.20;87.90;;;;;;4177190;28;20048;-58
2022/01/27 10:13:58;;;;;;;0.00;0.00;;;4.20;85.90;;;;;;4163457;28;20514;-59
2022/01/27 10:16:35;;;;;;;0.00;0.00;;;4.00;87.00;;;;;;4162945;28;20045;-58
2022/01/27 10:19:09;;;;;;;0.00;0.00;;;4.20;86.80;;;;;;4177339;28;20084;-58
2022/01/27 10:21:34;;;;;;;0.00;0.00;;;4.20;85.10;;;;;;4163208;28;20546;-59
2022/01/27 10:23:57;;;;;;;0.00;0.00;;;4.20;85.20;;;;;;4163379;28;20076;-60
2022/01/27 10:26:22;;;;;;;0.00;0.00;;;4.40;85.60;;;;;;4162694;28;20108;-59
2022/01/27 10:29:01;;;;;;;0.00;0.00;;;4.60;84.80;;;;;;4177240;28;20894;-60
2022/01/27 10:31:25;;;;;;;0.00;0.00;;;4.80;83.70;;;;;;4152769;28;20045;-59
2022/01/27 10:33:53;;;;;;;0.00;0.00;;;5.00;83.00;;;;;;4163131;28;20053;-59
2022/01/27 10:36:23;;;;;;;0.00;0.00;;;5.10;82.80;;;;;;4135905;28;20120;-59
2022/01/27 10:38:50;;;;;;;0.00;0.00;;;5.30;82.40;;;;;;4162874;28;20045;-58
2022/01/27 10:41:12;;;;;;;0.00;0.00;;;5.30;81.60;;;;;;4162636;28;20053;-59
2022/01/27 10:43:36;;;;;;;0.00;0.00;;;5.50;81.60;;;;;;4158547;28;20391;-59
2022/01/27 10:48:34;;;;;;;;;;;5.90;81.20;;;;;;4162870;28;20049;-59
2022/01/27 10:53:23;;;;;;;0.00;0.00;;;6.90;79.80;;;;;;4176251;28;20083;-59
2022/01/27 10:56:04;;;;;;;0.00;0.00;;;7.40;77.30;;;;;;4162633;28;20465;-60
2022/01/27 10:58:27;;;;;;;0.00;0.00;;;8.00;75.50;;;;;;4175601;28;20490;-59
2022/01/27 11:00:58;;;;;;;0.00;0.00;;;8.70;74.30;;;;;;4176375;28;20061;-59
2022/01/27 11:03:21;;;;;;;0.00;0.00;;;9.40;70.90;;;;;;4166737;28;20091;-58
2022/01/27 11:05:45;;;;;;;0.00;0.00;;;9.90;69.60;;;;;;4159460;28;20476;-59
2022/01/27 11:08:07;;;;;;;0.00;0.00;;;10.10;67.10;;;;;;4160235;28;20251;-60
2022/01/27 11:10:30;;;;;;;0.00;0.00;;;9.80;65.60;;;;;;4159495;28;20041;-59
2022/01/27 11:12:53;;;;;;;0.00;0.00;;;9.00;67.30;;;;;;4160129;28;20084;-59
2022/01/27 11:15:18;;;;;;;0.00;0.00;;;8.90;67.40;;;;;;4159784;28;20124;-59
2022/01/27 11:17:42;;;;;;;0.00;0.00;;;8.70;68.00;;;;;;4171190;28;20140;-59
2022/01/27 11:20:33;;;;;;;0.00;0.00;;;8.50;68.20;;;;;;4164077;28;20045;-58
2022/01/27 11:23:22;;;;;;;0.00;0.00;;;8.30;68.30;;;;;;4178779;28;20053;-59
2022/01/27 11:25:52;;;;;;;0.00;0.00;;;8.30;68.80;;;;;;4192632;28;20041;-57
2022/01/27 11:28:15;;;;;;;0.00;0.00;;;8.70;68.70;;;;;;4192473;28;20056;-60
2022/01/27 11:30:52;;;;;;;0.00;0.00;;;9.40;68.10;;;;;;4178372;28;20045;-60
2022/01/27 11:33:16;;;;;;;0.00;0.00;;;10.00;65.50;;;;;;4178805;28;20495;-60
2022/01/27 11:36:18;;;;;;;0.00;0.00;;;9.90;64.30;;;;;;4178542;28;20057;-61
2022/01/27 11:38:43;;;;;;;0.00;0.00;;;10.40;64.00;;;;;;4178377;28;20072;-60
2022/01/27 11:41:06;;;;;;;0.00;0.00;;;10.70;62.10;;;;;;4178161;28;20052;-59
2022/01/27 11:43:35;;;;;;;0.00;0.00;;;10.30;61.50;;;;;;4178349;28;20045;-60
2022/01/27 11:46:15;;;;;;;0.00;0.00;;;10.50;62.00;;;;;;4178534;28;20071;-60
2022/01/27 11:48:37;;;;;;;0.00;0.00;;;10.30;61.70;;;;;;4178002;28;20130;-61
2022/01/27 11:51:07;;;;;;;0.00;0.00;;;9.70;63.80;;;;;;4186882;28;20145;-62
2022/01/27 11:53:44;;;;;;;0.00;0.00;;;9.40;65.50;;;;;;4194994;28;20040;-59
2022/01/27 11:56:26;;;;;;;0.00;0.00;;;9.10;66.00;;;;;;4194989;28;20505;-58
2022/01/27 11:58:52;;;;;;;0.00;0.00;;;8.60;66.80;;;;;;4194597;28;20044;-59
2022/01/27 12:01:27;;;;;;;0.00;0.00;;;8.20;67.20;;;;;;4195127;28;20044;-57
2022/01/27 12:04:08;;;;;;;0.00;0.00;;;7.90;68.10;;;;;;4208882;28;20079;-60
2022/01/27 12:06:50;;;;;;;0.00;0.00;;;7.90;68.90;;;;;;4194285;28;20059;-60
2022/01/27 12:09:21;;;;;;;0.00;0.00;;;8.10;68.80;;;;;;4194311;28;20044;-60
2022/01/27 12:12:11;;;;;;;0.00;0.00;;;8.10;69.20;;;;;;4208578;28;20098;-60
2022/01/27 12:14:39;;;;;;;0.00;0.00;;;8.30;68.90;;;;;;4177771;28;20124;-60
2022/01/27 12:17:07;;;;;;;0.00;0.00;;;8.50;68.60;;;;;;4181382;28;20069;-60
2022/01/27 12:19:55;;;;;;;0.00;0.00;;;8.70;68.60;;;;;;4181444;28;20056;-60
2022/01/27 12:22:18;;;;;;;0.00;0.00;;;8.70;68.00;;;;;;4180950;28;20049;-60
2022/01/27 12:24:57;;;;;;;0.00;0.00;;;8.40;68.80;;;;;;4181787;28;20073;-60
2022/01/27 12:27:21;;;;;;;0.00;0.00;;;8.50;68.10;;;;;;4195531;28;20452;-60
2022/01/27 12:30:06;;;;;;;0.00;0.00;;;8.00;69.10;;;;;;4181487;28;20089;-59
2022/01/27 12:32:31;;;;;;;0.00;0.00;;;8.30;69.30;;;;;;4180973;28;20079;-59
2022/01/27 12:34:57;;;;;;;0.00;0.00;;;8.60;68.60;;;;;;4181288;28;20071;-59
2022/01/27 12:37:24;;;;;;;0.00;0.00;;;8.50;67.90;;;;;;4181531;28;20422;-59
2022/01/27 12:39:55;;;;;;;0.00;0.00;;;7.00;70.60;;;;;;4181114;28;20087;-59
2022/01/27 12:42:19;;;;;;;0.00;0.00;;;6.70;73.20;;;;;;4166804;28;20470;-59
2022/01/27 12:45:00;;;;;;;0.00;0.00;;;7.00;72.70;;;;;;4181419;28;20131;-58
2022/01/27 12:47:24;;;;;;;0.00;0.00;;;7.20;72.10;;;;;;4195099;28;20063;-59
2022/01/27 12:49:48;;;;;;;0.00;0.00;;;7.40;71.80;;;;;;4195100;28;20080;-58
2022/01/27 12:52:20;;;;;;;0.00;0.00;;;7.50;72.00;;;;;;4164393;28;20076;-59
2022/01/27 12:54:44;;;;;;;0.00;0.00;;;7.40;72.30;;;;;;4164129;28;20056;-60
2022/01/27 12:57:30;;;;;;;0.00;0.00;;;7.40;72.60;;;;;;4164701;28;20053;-59
2022/01/27 12:59:55;;;;;;;0.00;0.00;;;7.20;73.60;;;;;;4164459;28;20117;-58
2022/01/27 13:02:18;;;;;;;0.00;0.00;;;6.90;74.40;;;;;;4162958;28;20096;-59
2022/01/27 13:04:42;;;;;;;0.00;0.00;;;6.90;74.70;;;;;;4148156;28;20042;-60
2022/01/27 13:07:06;;;;;;;0.00;0.00;;;7.00;74.60;;;;;;4161880;28;20057;-59
2022/01/27 13:09:29;;;;;;;0.00;0.00;;;7.00;74.70;;;;;;4147880;28;20141;-59
2022/01/27 13:11:54;;;;;;;0.00;0.00;;;7.10;74.40;;;;;;4161529;28;20053;-61
2022/01/27 13:14:18;;;;;;;0.00;0.00;;;6.90;74.80;;;;;;4163918;28;20045;-60
2022/01/27 13:16:51;;;;;;;0.00;0.00;;;6.50;76.10;;;;;;4164409;28;20049;-59
2022/01/27 13:19:34;;;;;;;0.00;0.00;;;6.20;77.60;;;;;;4164284;28;20426;-61
2022/01/27 13:22:02;;;;;;;0.00;0.00;;;5.90;78.60;;;;;;4163672;28;20037;-60
2022/01/27 13:24:47;;;;;;;0.00;0.00;;;5.80;79.50;;;;;;4163765;28;20099;-59
2022/01/27 13:27:12;;;;;;;0.00;0.00;;;5.90;79.70;;;;;;4177983;28;20041;-60
2022/01/27 13:29:45;;;;;;;0.00;0.00;;;5.70;80.00;;;;;;4163491;28;20048;-59
2022/01/27 13:32:09;;;;;;;0.00;0.00;;;5.80;80.20;;;;;;4177685;28;20052;-59
2022/01/27 13:34:32;;;;;;;0.00;0.00;;;5.70;80.30;;;;;;4163607;28;20057;-58
2022/01/27 13:37:00;;;;;;;0.00;0.00;;;5.70;79.90;;;;;;4177576;28;20041;-59
2022/01/27 13:41:50;;;;;;;0.00;0.00;;;5.80;79.60;;;;;;4177435;28;20041;-59
2022/01/27 13:44:15;;;;;;;0.00;0.00;;;5.70;79.70;;;;;;4180031;28;20060;-59
2022/01/27 13:46:47;;;;;;;0.00;0.00;;;5.90;79.70;;;;;;4180061;28;20029;-60
2022/01/27 13:49:19;;;;;;;0.00;0.00;;;6.10;79.40;;;;;;4180215;28;20048;-58
2022/01/27 13:51:58;;;;;;;0.00;0.00;;;6.00;79.40;;;;;;4193713;28;20241;-59